SBBR/BSB METAR and TAF weather

Enter ICAO airport designator
Station Type Date Time Source
SBBR METAR 2019/02/21 11:00 UTC NOAA

SBBR 211100Z 00000KT CAVOK 21/19 Q1019


Station Type Date Time Source
SBBR Decoded METAR 2019/02/21 11:00 UTC NOAA

Brasilia Aeroporto , Brazil (SBBR) 15-52S 047-56W 1061M
Feb 21, 2019 - 06:00 AM EST / 2019.02.21 1100 UTC
Wind: Calm:0
Visibility: greater than 7 mile(s):0
Temperature: 69 F (21 C)
Dew Point: 66 F (19 C)
Relative Humidity: 88%
Pressure (altimeter): 30.09 in. Hg (1019 hPa)
ob: SBBR 211100Z 00000KT CAVOK 21/19 Q1019
cycle: 11

Station Type Date Time Source
SBBR TAF 2019/02/21 12:28 UTC NOAA

TAF SBBR 211000Z 2112/2212 10005KT 9999 FEW025 TX27/2112Z TN19/2208Z
BECMG 2113/2115 9999 33010KT FEW028
BECMG 2116/2117 01010KT BKN032 FEW036TCU
BECMG 2118/2120 TS SCT036 FEW040CB
BECMG 2121/2123 35005KT NSW FEW036
BECMG 2200/2202 7000 NSC
BECMG 2210/2212 10005KT FEW027
RMK PEW


Example: see airport list